createdAt,value
2023-04-14T00:02:24.665Z,45.00
2023-04-14T00:04:53.960Z,44.50
2023-04-14T00:07:20.915Z,47.00
2023-04-14T00:09:47.766Z,49.60
2023-04-14T00:12:14.652Z,56.80
2023-04-14T00:14:43.171Z,70.00
2023-04-14T00:17:10.715Z,68.30
2023-04-14T00:19:37.923Z,70.20
2023-04-14T00:22:04.910Z,80.00
2023-04-14T00:24:31.903Z,93.40
2023-04-14T00:26:58.855Z,99.40
2023-04-14T00:29:26.010Z,99.90
2023-04-14T00:31:53.194Z,99.90
2023-04-14T00:34:20.467Z,99.90
2023-04-14T00:36:47.330Z,99.90
2023-04-14T00:39:14.280Z,99.90
2023-04-14T00:41:41.548Z,99.90
2023-04-14T00:44:08.445Z,99.90
2023-04-14T00:46:36.731Z,99.90
2023-04-14T00:49:04.220Z,99.90
2023-04-14T00:51:32.356Z,99.90
2023-04-14T00:54:00.222Z,99.90
2023-04-14T00:56:27.185Z,99.90
2023-04-14T00:58:54.158Z,99.10
2023-04-14T01:01:21.096Z,87.80
2023-04-14T01:03:48.538Z,74.30
2023-04-14T01:06:15.671Z,57.00
2023-04-14T01:08:42.607Z,37.90
2023-04-14T01:11:17.157Z,25.10
2023-04-14T01:13:53.949Z,16.90
2023-04-14T01:16:30.500Z,7.50
2023-04-14T01:19:06.288Z,1.00
2023-04-14T01:21:41.713Z,1.00
2023-04-14T01:24:23.857Z,1.00
2023-04-14T01:27:07.096Z,1.00
2023-04-14T01:29:50.564Z,1.00
2023-04-14T01:32:23.386Z,1.00
2023-04-14T01:35:08.476Z,1.00
2023-04-14T01:37:54.359Z,1.00
2023-04-14T01:40:22.994Z,1.00
2023-04-14T01:43:07.553Z,1.00
2023-04-14T01:45:42.100Z,1.00
2023-04-14T01:48:10.098Z,1.00
2023-04-14T01:50:38.246Z,1.00
2023-04-14T01:53:11.183Z,1.00
2023-04-14T01:55:40.424Z,1.00
2023-04-14T01:58:08.768Z,1.00
2023-04-14T02:00:38.173Z,1.00
2023-04-14T02:03:06.800Z,1.00
2023-04-14T02:05:37.208Z,1.00
2023-04-14T02:08:08.362Z,14.90
2023-04-14T02:10:38.065Z,5.40
2023-04-14T02:13:05.691Z,6.90
2023-04-14T02:15:33.773Z,12.20
2023-04-14T02:18:02.906Z,17.00
2023-04-14T02:20:29.997Z,18.90
2023-04-14T02:22:57.016Z,19.50
2023-04-14T02:25:29.289Z,20.70
2023-04-14T02:28:00.425Z,22.20
2023-04-14T02:30:39.048Z,22.00
2023-04-14T02:33:12.297Z,19.30
2023-04-14T02:35:46.352Z,18.70
2023-04-14T02:38:39.168Z,16.90
2023-04-14T02:41:28.299Z,12.90
2023-04-14T02:44:07.488Z,12.60
2023-04-14T02:46:40.842Z,12.40
2023-04-14T02:49:11.717Z,7.50
2023-04-14T02:51:41.738Z,7.60
2023-04-14T02:54:09.012Z,6.40
2023-04-14T02:56:46.020Z,6.10
2023-04-14T02:59:14.425Z,2.10
2023-04-14T03:01:43.477Z,1.00
2023-04-14T03:04:11.297Z,1.00
2023-04-14T03:06:40.004Z,1.00
2023-04-14T03:09:07.781Z,1.00
2023-04-14T03:11:37.870Z,1.00
2023-04-14T03:14:07.334Z,1.00
2023-04-14T03:16:39.428Z,1.00
2023-04-14T03:19:08.333Z,1.70
2023-04-14T03:21:36.738Z,1.70
2023-04-14T03:24:05.751Z,1.00
2023-04-14T03:26:34.762Z,1.00
2023-04-14T03:29:07.918Z,1.00
2023-04-14T03:31:37.326Z,1.00
2023-04-14T03:34:10.985Z,1.90
2023-04-14T03:36:38.862Z,7.70
2023-04-14T03:39:06.983Z,14.10
2023-04-14T03:41:38.747Z,23.70
2023-04-14T03:44:07.637Z,38.40
2023-04-14T03:46:34.746Z,49.90
2023-04-14T03:49:06.928Z,55.60
2023-04-14T03:51:35.191Z,70.00
2023-04-14T03:54:06.020Z,75.90
2023-04-14T03:56:38.349Z,97.00
2023-04-14T03:59:10.063Z,98.50
2023-04-14T04:01:41.221Z,99.90
2023-04-14T04:04:09.308Z,99.90
2023-04-14T04:06:37.263Z,99.90
2023-04-14T04:09:06.794Z,99.90
2023-04-14T04:11:35.565Z,99.90
2023-04-14T04:14:04.527Z,99.90
2023-04-14T04:16:37.035Z,99.90
2023-04-14T04:19:10.847Z,99.90
2023-04-14T04:21:41.379Z,99.90
2023-04-14T04:24:10.452Z,99.90
2023-04-14T04:26:37.703Z,99.90
2023-04-14T04:29:05.522Z,99.90
2023-04-14T04:31:34.321Z,99.90
2023-04-14T04:34:03.439Z,99.90
2023-04-14T04:36:32.072Z,99.90
2023-04-14T04:38:59.429Z,99.90
2023-04-14T04:41:28.924Z,99.90
2023-04-14T04:43:56.674Z,99.90
2023-04-14T04:46:51.790Z,99.90
2023-04-14T04:49:18.962Z,99.90
2023-04-14T04:51:46.238Z,99.90
2023-04-14T04:54:13.902Z,99.90
2023-04-14T04:56:41.315Z,99.90
2023-04-14T04:59:09.198Z,99.90
2023-04-14T05:01:36.775Z,99.90
2023-04-14T05:04:03.953Z,99.90
2023-04-14T05:06:30.908Z,99.90
2023-04-14T05:08:58.631Z,99.90
2023-04-14T05:11:27.186Z,99.90
2023-04-14T05:13:54.286Z,99.90
2023-04-14T05:16:21.395Z,99.90
2023-04-14T05:18:48.657Z,99.90
2023-04-14T05:21:16.031Z,99.90
2023-04-14T05:23:44.736Z,99.90
2023-04-14T05:26:39.058Z,1.00
2023-04-14T05:29:03.438Z,99.90
2023-04-14T05:31:31.337Z,1.00
2023-04-14T05:33:58.346Z,1.00
2023-04-14T05:36:25.604Z,1.00
2023-04-14T05:38:52.563Z,1.00
2023-04-14T05:41:22.143Z,1.00
2023-04-14T05:43:49.306Z,1.00
2023-04-14T05:46:16.647Z,1.00
2023-04-14T05:48:44.021Z,1.00
2023-04-14T05:51:11.550Z,1.00
2023-04-14T05:53:38.806Z,1.00
2023-04-14T05:56:06.092Z,1.00
2023-04-14T05:58:33.030Z,1.00
2023-04-14T06:01:00.134Z,1.00
2023-04-14T06:03:27.205Z,1.00
2023-04-14T06:05:54.608Z,1.00
2023-04-14T06:08:21.673Z,99.90
2023-04-14T06:10:48.647Z,99.90
2023-04-14T06:13:17.030Z,99.90
2023-04-14T06:15:44.021Z,99.90
2023-04-14T06:18:11.109Z,99.90
2023-04-14T06:20:38.069Z,99.90
2023-04-14T06:23:05.660Z,99.90
2023-04-14T06:25:34.291Z,99.90
2023-04-14T06:28:03.907Z,99.90
2023-04-14T06:30:33.970Z,99.90
2023-04-14T06:33:04.860Z,99.90
2023-04-14T06:35:33.899Z,99.90
2023-04-14T06:38:04.265Z,99.90
2023-04-14T06:40:31.354Z,99.90
2023-04-14T06:42:58.462Z,99.90
2023-04-14T06:45:25.587Z,99.90
2023-04-14T06:47:52.683Z,99.90
2023-04-14T06:50:20.051Z,99.90
2023-04-14T06:52:47.066Z,99.90
2023-04-14T06:55:14.152Z,99.90
2023-04-14T06:57:42.533Z,84.00
2023-04-14T07:00:10.904Z,77.20
2023-04-14T07:02:37.908Z,71.10
2023-04-14T07:05:06.383Z,54.70
2023-04-14T07:07:37.515Z,48.10
2023-04-14T07:10:05.009Z,35.20
2023-04-14T07:12:32.978Z,14.00
2023-04-14T07:15:00.456Z,1.00
2023-04-14T07:17:27.399Z,1.00
2023-04-14T07:19:54.458Z,1.00
2023-04-14T07:22:21.532Z,1.00
2023-04-14T07:24:48.508Z,1.00
2023-04-14T07:27:15.993Z,1.00
2023-04-14T07:29:44.275Z,1.00
2023-04-14T07:32:13.524Z,1.00
2023-04-14T07:34:44.144Z,1.00
2023-04-14T07:37:11.708Z,1.00
2023-04-14T07:39:38.902Z,1.00
2023-04-14T07:42:07.125Z,1.00
2023-04-14T07:44:34.370Z,1.00
2023-04-14T07:47:01.309Z,1.00
2023-04-14T07:49:28.406Z,1.00
2023-04-14T07:51:57.045Z,1.00
2023-04-14T07:54:24.418Z,1.00
2023-04-14T07:56:54.954Z,1.00
2023-04-14T07:59:22.063Z,1.00
2023-04-14T08:01:49.166Z,1.00
2023-04-14T08:04:16.391Z,1.00
2023-04-14T08:06:43.310Z,1.00
2023-04-14T08:09:12.552Z,1.00
2023-04-14T08:11:39.545Z,1.00
2023-04-14T08:14:06.549Z,1.00
2023-04-14T08:16:36.944Z,1.00
2023-04-14T08:19:05.428Z,1.00
2023-04-14T08:21:32.768Z,1.00
2023-04-14T08:23:59.753Z,1.00
2023-04-14T08:26:27.673Z,1.00
2023-04-14T08:28:55.106Z,1.00
2023-04-14T08:31:24.973Z,1.00
2023-04-14T08:33:53.243Z,1.00
2023-04-14T08:36:21.144Z,1.00
2023-04-14T08:38:48.094Z,1.00
2023-04-14T08:41:18.758Z,1.00
2023-04-14T08:43:46.444Z,1.00
2023-04-14T08:46:16.107Z,1.00
2023-04-14T08:48:47.817Z,1.00
2023-04-14T08:51:20.620Z,1.00
2023-04-14T08:53:49.161Z,1.00
2023-04-14T08:56:18.724Z,1.00
2023-04-14T08:58:45.977Z,1.00
2023-04-14T09:01:13.611Z,1.00
2023-04-14T09:03:41.749Z,1.00
2023-04-14T09:06:09.347Z,1.00
2023-04-14T09:08:36.624Z,1.00
2023-04-14T09:11:04.155Z,1.00
2023-04-14T09:13:31.731Z,1.00
2023-04-14T09:16:00.437Z,1.00
2023-04-14T09:18:28.854Z,1.00
2023-04-14T09:21:31.136Z,1.00
2023-04-14T09:23:47.733Z,1.00
2023-04-14T09:26:15.139Z,1.00
2023-04-14T09:28:44.102Z,1.00
2023-04-14T09:31:11.769Z,1.00
2023-04-14T09:33:40.213Z,1.00
2023-04-14T09:36:17.402Z,1.00
2023-04-14T09:38:44.371Z,1.00
2023-04-14T09:41:19.593Z,1.00
2023-04-14T09:43:47.192Z,1.00
2023-04-14T09:46:15.714Z,1.00
2023-04-14T09:49:06.719Z,1.00
2023-04-14T09:51:33.934Z,1.00
2023-04-14T09:54:08.255Z,1.00
2023-04-14T09:56:35.268Z,1.00
2023-04-14T09:59:03.456Z,1.00
2023-04-14T10:01:34.083Z,1.00
2023-04-14T10:04:05.216Z,1.00
2023-04-14T10:06:35.112Z,1.00
2023-04-14T10:09:03.309Z,1.00
2023-04-14T10:11:32.985Z,1.00
2023-04-14T10:14:05.534Z,1.00
2023-04-14T10:16:34.075Z,1.00
2023-04-14T10:19:02.513Z,1.00
2023-04-14T10:21:30.757Z,1.00
2023-04-14T10:23:58.266Z,1.00
2023-04-14T10:26:27.067Z,1.00
2023-04-14T10:28:56.322Z,1.00
2023-04-14T10:31:38.463Z,1.00
2023-04-14T10:34:16.271Z,1.00
2023-04-14T10:36:44.515Z,1.00
2023-04-14T10:39:12.421Z,1.00
2023-04-14T10:41:48.863Z,1.00
2023-04-14T10:44:26.540Z,1.00
2023-04-14T10:46:56.489Z,1.00
2023-04-14T10:49:34.761Z,1.00
2023-04-14T10:52:21.782Z,1.00
2023-04-14T10:54:52.096Z,1.00
2023-04-14T10:57:22.638Z,1.00
2023-04-14T10:59:53.695Z,1.00
2023-04-14T11:02:34.663Z,1.00
2023-04-14T11:05:11.616Z,1.00
2023-04-14T11:07:47.343Z,1.00
2023-04-14T11:10:17.689Z,1.00
2023-04-14T11:12:46.554Z,1.00
2023-04-14T11:15:14.794Z,1.00
2023-04-14T11:17:45.966Z,1.00
2023-04-14T11:20:18.570Z,1.00
2023-04-14T11:22:47.645Z,99.90
2023-04-14T11:25:20.809Z,99.90
2023-04-14T11:27:50.185Z,99.90
2023-04-14T11:30:19.318Z,99.90
2023-04-14T11:32:48.028Z,99.90
2023-04-14T11:35:16.293Z,99.90
2023-04-14T11:37:44.301Z,99.90
2023-04-14T11:40:12.492Z,99.90
2023-04-14T11:42:43.972Z,99.90
2023-04-14T11:45:13.695Z,99.90
2023-04-14T11:47:40.769Z,99.90
2023-04-14T11:50:08.829Z,99.90
2023-04-14T11:52:35.871Z,99.90
2023-04-14T11:55:03.200Z,99.90
2023-04-14T11:57:30.319Z,99.90
2023-04-14T11:59:57.495Z,99.90
2023-04-14T12:02:24.773Z,99.90
2023-04-14T12:04:52.344Z,99.90
2023-04-14T12:07:20.955Z,99.90
2023-04-14T12:09:49.703Z,99.90
2023-04-14T12:12:18.650Z,99.90
2023-04-14T12:14:47.501Z,99.90
2023-04-14T12:17:18.846Z,99.90
2023-04-14T12:19:45.953Z,99.90
2023-04-14T12:22:12.946Z,99.90
2023-04-14T12:24:44.367Z,99.90
2023-04-14T12:27:12.808Z,99.90
2023-04-14T12:29:43.962Z,99.90
2023-04-14T12:32:12.586Z,99.90
2023-04-14T12:34:39.735Z,99.90
2023-04-14T12:37:11.466Z,99.90
2023-04-14T12:39:58.527Z,99.90
2023-04-14T12:42:43.152Z,99.90
2023-04-14T12:45:10.814Z,99.90
2023-04-14T12:47:37.945Z,99.90
2023-04-14T12:50:30.456Z,99.90
2023-04-14T12:52:59.063Z,99.90
2023-04-14T12:55:31.447Z,99.90
2023-04-14T12:57:59.694Z,99.90
2023-04-14T13:00:28.360Z,99.90
2023-04-14T13:02:56.225Z,99.90
2023-04-14T13:05:24.450Z,99.90
2023-04-14T13:07:51.596Z,99.90
2023-04-14T13:10:18.777Z,99.90
2023-04-14T13:12:45.896Z,99.90
2023-04-14T13:15:32.623Z,99.90
2023-04-14T13:18:00.832Z,99.90
2023-04-14T13:20:30.518Z,99.90
2023-04-14T13:22:57.609Z,99.90
2023-04-14T13:25:24.741Z,99.90
2023-04-14T13:27:51.818Z,99.90
2023-04-14T13:30:18.857Z,99.90
2023-04-14T13:32:46.231Z,99.90
2023-04-14T13:35:13.456Z,99.90
2023-04-14T13:37:41.383Z,99.90
2023-04-14T13:40:09.214Z,99.90
2023-04-14T13:42:36.499Z,99.90
2023-04-14T13:45:03.526Z,99.90
2023-04-14T13:47:30.502Z,99.90
2023-04-14T13:49:57.541Z,99.90
2023-04-14T13:52:24.677Z,99.90
2023-04-14T13:54:51.958Z,99.90
2023-04-14T13:57:19.079Z,99.90
2023-04-14T13:59:46.191Z,99.90
2023-04-14T14:02:13.645Z,99.90
2023-04-14T14:04:40.895Z,99.90
2023-04-14T14:07:08.168Z,99.90
2023-04-14T14:09:35.200Z,99.90
2023-04-14T14:12:02.524Z,99.90
2023-04-14T14:14:29.547Z,99.90
2023-04-14T14:16:56.630Z,99.90
2023-04-14T14:19:23.997Z,99.90
2023-04-14T14:21:50.991Z,99.90
2023-04-14T14:24:17.925Z,99.90
2023-04-14T14:26:44.881Z,99.90
2023-04-14T14:29:11.838Z,99.90
2023-04-14T14:31:38.913Z,99.90
2023-04-14T14:34:05.912Z,99.90
2023-04-14T14:36:32.968Z,99.90
2023-04-14T14:39:00.005Z,99.90
2023-04-14T14:41:27.356Z,99.90
2023-04-14T14:43:54.300Z,99.90
2023-04-14T14:46:23.281Z,99.90
2023-04-14T14:48:50.251Z,99.90
2023-04-14T14:51:17.246Z,99.90
2023-04-14T14:53:44.106Z,99.90
2023-04-14T14:56:11.113Z,99.90
2023-04-14T14:58:38.013Z,99.90
2023-04-14T15:01:06.149Z,99.90
2023-04-14T15:03:33.676Z,99.90
2023-04-14T15:06:00.710Z,99.90
2023-04-14T15:08:28.060Z,99.90
2023-04-14T15:10:55.005Z,99.90
2023-04-14T15:13:22.072Z,99.90
2023-04-14T15:15:48.968Z,99.90
2023-04-14T15:18:16.187Z,99.90
2023-04-14T15:20:43.129Z,99.90
2023-04-14T15:23:10.087Z,99.90
2023-04-14T15:25:37.064Z,99.90
2023-04-14T15:28:04.083Z,99.90
2023-04-14T15:30:31.139Z,99.90
2023-04-14T15:32:58.486Z,99.90
2023-04-14T15:35:26.594Z,99.90
2023-04-14T15:37:53.562Z,99.90
2023-04-14T15:40:20.680Z,99.90
2023-04-14T15:42:47.582Z,99.90
2023-04-14T15:45:14.518Z,99.90
2023-04-14T15:47:41.441Z,99.90
2023-04-14T15:50:09.698Z,99.90
2023-04-14T15:52:41.068Z,99.90
2023-04-14T15:55:09.513Z,99.90
2023-04-14T15:57:36.872Z,99.90
2023-04-14T16:00:07.418Z,99.90
2023-04-14T16:02:35.893Z,99.90
2023-04-14T16:05:05.218Z,99.90
2023-04-14T16:07:34.907Z,99.90
2023-04-14T16:10:02.097Z,99.90
2023-04-14T16:12:30.344Z,99.90
2023-04-14T16:14:57.331Z,99.90
2023-04-14T16:17:24.553Z,99.90
2023-04-14T16:19:52.047Z,99.90
2023-04-14T16:22:18.995Z,99.90
2023-04-14T16:24:46.587Z,99.90
2023-04-14T16:27:13.712Z,99.90
2023-04-14T16:29:41.701Z,99.90
2023-04-14T16:32:09.151Z,99.90
2023-04-14T16:34:36.214Z,99.90
2023-04-14T16:37:03.270Z,99.90
2023-04-14T16:39:31.467Z,99.90
2023-04-14T16:41:59.009Z,99.90
2023-04-14T16:44:25.949Z,99.90
2023-04-14T16:46:53.194Z,99.90
2023-04-14T16:49:20.438Z,99.90
2023-04-14T16:51:47.527Z,99.90
2023-04-14T16:54:14.651Z,99.90
2023-04-14T16:56:41.627Z,99.90
2023-04-14T16:59:09.973Z,99.90
2023-04-14T17:01:37.113Z,99.90
2023-04-14T17:04:04.704Z,99.90
2023-04-14T17:06:32.113Z,99.90
2023-04-14T17:09:00.788Z,99.90
2023-04-14T17:11:27.880Z,99.90
2023-04-14T17:13:54.761Z,99.90
2023-04-14T17:16:24.714Z,99.90
2023-04-14T17:18:51.999Z,99.90
2023-04-14T17:21:19.386Z,99.90
2023-04-14T17:23:46.749Z,99.90
2023-04-14T17:26:16.152Z,99.90
2023-04-14T17:28:44.106Z,99.90
2023-04-14T17:31:13.435Z,99.90
2023-04-14T17:33:42.027Z,99.90
2023-04-14T17:36:14.829Z,99.90
2023-04-14T17:38:43.562Z,99.90
2023-04-14T17:41:12.606Z,99.90
2023-04-14T17:43:41.417Z,99.90
2023-04-14T17:46:09.297Z,99.90
2023-04-14T17:48:36.275Z,99.90
2023-04-14T17:51:04.232Z,99.90
2023-04-14T17:53:31.518Z,99.90
2023-04-14T17:55:58.832Z,99.90
2023-04-14T17:58:27.263Z,99.90
2023-04-14T18:00:54.366Z,99.90
2023-04-14T18:03:21.472Z,99.90
2023-04-14T18:05:48.676Z,99.90
2023-04-14T18:08:16.175Z,99.90
2023-04-14T18:10:45.569Z,99.90
2023-04-14T18:13:12.985Z,99.90
2023-04-14T18:15:41.790Z,99.90
2023-04-14T18:18:09.232Z,99.90
2023-04-14T18:20:36.558Z,99.90
2023-04-14T18:23:03.682Z,99.90
2023-04-14T18:28:04.220Z,99.90
2023-04-14T18:30:31.441Z,99.90
2023-04-14T18:32:58.885Z,99.90
2023-04-14T18:35:26.609Z,99.90
2023-04-14T18:37:53.822Z,99.90
2023-04-14T18:40:21.126Z,99.90
2023-04-14T18:42:49.064Z,99.90
2023-04-14T18:45:16.104Z,99.90
2023-04-14T18:47:43.277Z,1.00
2023-04-14T18:50:11.026Z,1.00
2023-04-14T18:52:38.095Z,1.00
2023-04-14T18:55:05.588Z,1.00
2023-04-14T18:57:32.663Z,1.00
2023-04-14T19:00:00.091Z,1.00
2023-04-14T19:02:28.103Z,1.00
2023-04-14T19:04:55.172Z,1.00
2023-04-14T19:07:22.319Z,1.00
2023-04-14T19:09:49.926Z,1.00
2023-04-14T19:12:27.620Z,1.00
2023-04-14T19:14:55.591Z,1.00
2023-04-14T19:17:22.611Z,1.00
2023-04-14T19:19:50.401Z,1.00
2023-04-14T19:22:17.342Z,1.00
2023-04-14T19:24:44.287Z,1.00
2023-04-14T19:27:11.442Z,1.00
2023-04-14T19:29:38.756Z,1.00
2023-04-14T19:32:05.744Z,1.00
2023-04-14T19:34:32.937Z,1.00
2023-04-14T19:37:00.013Z,1.00
2023-04-14T19:39:27.020Z,1.00
2023-04-14T19:41:53.899Z,1.00
2023-04-14T19:44:21.102Z,1.00
2023-04-14T19:46:48.297Z,1.00
2023-04-14T19:49:15.844Z,1.00
2023-04-14T19:51:43.793Z,1.00
2023-04-14T19:54:10.882Z,1.00
2023-04-14T19:56:38.056Z,1.00
2023-04-14T19:59:05.590Z,1.00
2023-04-14T20:01:32.594Z,1.00
2023-04-14T20:04:04.985Z,1.00
2023-04-14T20:06:37.726Z,1.00
2023-04-14T20:09:05.038Z,1.00
2023-04-14T20:11:32.748Z,1.00
2023-04-14T20:14:01.049Z,1.00
2023-04-14T20:16:28.007Z,1.00
2023-04-14T20:18:55.568Z,1.00
2023-04-14T20:21:22.666Z,1.00
2023-04-14T20:23:49.622Z,1.00
2023-04-14T20:26:16.560Z,1.00
2023-04-14T20:28:43.864Z,1.00
2023-04-14T20:31:11.745Z,1.00
2023-04-14T20:33:39.711Z,1.00
2023-04-14T20:36:07.068Z,1.00
2023-04-14T20:38:34.684Z,1.00
2023-04-14T20:41:01.686Z,1.00
2023-04-14T20:43:34.712Z,1.00
2023-04-14T20:46:02.479Z,1.00
2023-04-14T20:48:30.534Z,1.00
2023-04-14T20:50:57.953Z,1.00
2023-04-14T20:53:27.190Z,1.00
2023-04-14T20:55:55.006Z,1.00
2023-04-14T20:58:22.003Z,1.00
2023-04-14T21:00:49.300Z,1.00
2023-04-14T21:03:16.392Z,1.00
2023-04-14T21:05:43.466Z,1.00
2023-04-14T21:08:10.661Z,1.00
2023-04-14T21:11:15.925Z,1.00
2023-04-14T21:15:26.330Z,1.00
2023-04-14T21:16:12.036Z,1.00
2023-04-14T21:18:39.029Z,1.00
2023-04-14T21:21:06.678Z,1.00
2023-04-14T21:23:35.271Z,1.00
2023-04-14T21:26:02.531Z,1.00
2023-04-14T21:28:31.465Z,1.00
2023-04-14T21:31:01.560Z,1.00
2023-04-14T21:33:28.914Z,1.00
2023-04-14T21:35:56.483Z,1.00
2023-04-14T21:38:24.604Z,1.00
2023-04-14T21:40:52.251Z,1.00
2023-04-14T21:43:19.105Z,1.00
2023-04-14T21:45:48.917Z,1.00
2023-04-14T21:48:17.366Z,1.00
2023-04-14T21:50:44.281Z,1.00
2023-04-14T21:53:11.228Z,1.00
2023-04-14T21:55:38.372Z,1.00
2023-04-14T21:58:05.655Z,1.00
2023-04-14T22:00:32.672Z,1.00
2023-04-14T22:02:59.701Z,1.00
2023-04-14T22:05:26.810Z,1.00
2023-04-14T22:07:53.887Z,1.00
2023-04-14T22:10:22.087Z,1.00
2023-04-14T22:12:49.703Z,1.00
2023-04-14T22:15:17.402Z,1.00
2023-04-14T22:17:45.840Z,1.00
2023-04-14T22:20:12.775Z,1.00
2023-04-14T22:22:40.264Z,1.00
2023-04-14T22:25:07.767Z,1.00
2023-04-14T22:27:34.832Z,1.00
2023-04-14T22:30:02.718Z,1.00
2023-04-14T22:32:29.653Z,1.00
2023-04-14T22:34:56.732Z,1.00
2023-04-14T22:37:23.613Z,1.00
2023-04-14T22:39:51.084Z,1.00
2023-04-14T22:42:18.060Z,1.00
2023-04-14T22:44:45.300Z,1.00
2023-04-14T22:47:12.272Z,1.00
2023-04-14T22:49:39.338Z,1.00
2023-04-14T22:52:06.688Z,1.00
2023-04-14T22:54:33.590Z,1.00
2023-04-14T22:57:01.294Z,1.00
2023-04-14T22:59:29.514Z,1.00
2023-04-14T23:01:57.038Z,1.00
2023-04-14T23:04:26.088Z,1.00
2023-04-14T23:06:53.531Z,1.00
2023-04-14T23:09:21.161Z,1.00
2023-04-14T23:11:48.823Z,1.00
2023-04-14T23:14:15.805Z,1.00
2023-04-14T23:16:43.850Z,1.00
2023-04-14T23:19:11.030Z,1.00
2023-04-14T23:21:37.915Z,1.00
2023-04-14T23:24:05.628Z,1.00
2023-04-14T23:26:32.514Z,1.00
2023-04-14T23:28:59.499Z,1.00
2023-04-14T23:31:28.161Z,1.00
2023-04-14T23:33:55.169Z,1.00
2023-04-14T23:36:22.671Z,1.00
2023-04-14T23:38:49.541Z,1.00
2023-04-14T23:41:16.882Z,1.00
2023-04-14T23:43:44.058Z,1.00
2023-04-14T23:46:10.959Z,1.00
2023-04-14T23:48:38.137Z,1.00
2023-04-14T23:51:15.802Z,1.00
2023-04-14T23:53:46.628Z,1.00
2023-04-14T23:56:13.490Z,1.00
2023-04-14T23:58:40.644Z,1.00
